sensor_id;sensor_type;location;lat;lon;timestamp;P1;durP1;ratioP1;P2;durP2;ratioP2
22628;SDS011;11481;53.694;9.910;2022-07-25T00:01:37;7.70;;;4.95;;
22628;SDS011;11481;53.694;9.910;2022-07-25T00:04:03;8.77;;;5.28;;
22628;SDS011;11481;53.694;9.910;2022-07-25T00:06:31;8.93;;;5.47;;
22628;SDS011;11481;53.694;9.910;2022-07-25T00:08:57;7.35;;;4.85;;
22628;SDS011;11481;53.694;9.910;2022-07-25T00:11:24;7.40;;;5.22;;
22628;SDS011;11481;53.694;9.910;2022-07-25T00:13:50;8.48;;;5.38;;
22628;SDS011;11481;53.694;9.910;2022-07-25T00:16:17;9.40;;;5.18;;
22628;SDS011;11481;53.694;9.910;2022-07-25T00:18:44;6.72;;;4.70;;
22628;SDS011;11481;53.694;9.910;2022-07-25T00:21:11;6.25;;;4.65;;
22628;SDS011;11481;53.694;9.910;2022-07-25T00:23:38;7.50;;;4.90;;
22628;SDS011;11481;53.694;9.910;2022-07-25T00:26:05;9.00;;;5.15;;
22628;SDS011;11481;53.694;9.910;2022-07-25T00:28:32;6.88;;;4.88;;
22628;SDS011;11481;53.694;9.910;2022-07-25T00:30:58;7.70;;;4.78;;
22628;SDS011;11481;53.694;9.910;2022-07-25T00:33:25;7.47;;;4.75;;
22628;SDS011;11481;53.694;9.910;2022-07-25T00:35:52;9.63;;;5.13;;
22628;SDS011;11481;53.694;9.910;2022-07-25T00:38:19;9.95;;;6.15;;
22628;SDS011;11481;53.694;9.910;2022-07-25T00:40:47;9.32;;;5.30;;
22628;SDS011;11481;53.694;9.910;2022-07-25T00:43:20;8.93;;;5.10;;
22628;SDS011;11481;53.694;9.910;2022-07-25T00:45:47;6.80;;;4.75;;
22628;SDS011;11481;53.694;9.910;2022-07-25T00:48:14;11.13;;;5.57;;
22628;SDS011;11481;53.694;9.910;2022-07-25T00:50:40;8.38;;;5.47;;
22628;SDS011;11481;53.694;9.910;2022-07-25T00:53:08;8.80;;;5.47;;
22628;SDS011;11481;53.694;9.910;2022-07-25T00:55:35;8.30;;;4.82;;
22628;SDS011;11481;53.694;9.910;2022-07-25T00:58:02;8.38;;;4.85;;
22628;SDS011;11481;53.694;9.910;2022-07-25T01:00:29;8.25;;;5.00;;
22628;SDS011;11481;53.694;9.910;2022-07-25T01:02:55;7.75;;;5.25;;
22628;SDS011;11481;53.694;9.910;2022-07-25T01:05:22;9.07;;;5.03;;
22628;SDS011;11481;53.694;9.910;2022-07-25T01:07:49;7.80;;;5.13;;
22628;SDS011;11481;53.694;9.910;2022-07-25T01:10:17;6.78;;;4.60;;
22628;SDS011;11481;53.694;9.910;2022-07-25T01:12:46;8.18;;;4.97;;
22628;SDS011;11481;53.694;9.910;2022-07-25T01:15:20;6.72;;;4.40;;
22628;SDS011;11481;53.694;9.910;2022-07-25T01:17:48;8.85;;;4.68;;
22628;SDS011;11481;53.694;9.910;2022-07-25T01:20:19;8.38;;;5.07;;
22628;SDS011;11481;53.694;9.910;2022-07-25T01:22:48;6.45;;;4.10;;
22628;SDS011;11481;53.694;9.910;2022-07-25T01:25:15;9.15;;;5.35;;
22628;SDS011;11481;53.694;9.910;2022-07-25T01:27:42;7.72;;;4.90;;
22628;SDS011;11481;53.694;9.910;2022-07-25T01:30:10;12.18;;;4.78;;
22628;SDS011;11481;53.694;9.910;2022-07-25T01:32:39;8.52;;;5.38;;
22628;SDS011;11481;53.694;9.910;2022-07-25T01:35:07;8.70;;;4.93;;
22628;SDS011;11481;53.694;9.910;2022-07-25T01:37:34;7.57;;;4.28;;
22628;SDS011;11481;53.694;9.910;2022-07-25T01:40:02;7.10;;;4.68;;
22628;SDS011;11481;53.694;9.910;2022-07-25T01:42:29;7.97;;;4.63;;
22628;SDS011;11481;53.694;9.910;2022-07-25T01:44:56;8.05;;;4.55;;
22628;SDS011;11481;53.694;9.910;2022-07-25T01:47:23;8.50;;;5.00;;
22628;SDS011;11481;53.694;9.910;2022-07-25T01:49:50;7.78;;;4.55;;
22628;SDS011;11481;53.694;9.910;2022-07-25T01:52:16;8.45;;;4.40;;
22628;SDS011;11481;53.694;9.910;2022-07-25T01:54:43;7.53;;;4.20;;
22628;SDS011;11481;53.694;9.910;2022-07-25T01:57:10;8.88;;;4.88;;
22628;SDS011;11481;53.694;9.910;2022-07-25T01:59:38;7.30;;;4.28;;
22628;SDS011;11481;53.694;9.910;2022-07-25T02:02:06;7.80;;;4.18;;
22628;SDS011;11481;53.694;9.910;2022-07-25T02:04:34;7.15;;;4.18;;
22628;SDS011;11481;53.694;9.910;2022-07-25T02:07:01;8.13;;;4.85;;
22628;SDS011;11481;53.694;9.910;2022-07-25T02:09:30;8.38;;;4.68;;
22628;SDS011;11481;53.694;9.910;2022-07-25T02:11:57;7.13;;;4.40;;
22628;SDS011;11481;53.694;9.910;2022-07-25T02:14:24;7.30;;;4.13;;
22628;SDS011;11481;53.694;9.910;2022-07-25T02:16:51;6.53;;;4.32;;
22628;SDS011;11481;53.694;9.910;2022-07-25T02:19:17;6.90;;;4.30;;
22628;SDS011;11481;53.694;9.910;2022-07-25T02:21:44;10.57;;;4.82;;
22628;SDS011;11481;53.694;9.910;2022-07-25T02:24:11;6.65;;;4.20;;
22628;SDS011;11481;53.694;9.910;2022-07-25T02:26:38;8.32;;;4.28;;
22628;SDS011;11481;53.694;9.910;2022-07-25T02:29:05;7.15;;;4.18;;
22628;SDS011;11481;53.694;9.910;2022-07-25T02:31:31;10.07;;;4.80;;
22628;SDS011;11481;53.694;9.910;2022-07-25T02:33:58;8.05;;;4.72;;
22628;SDS011;11481;53.694;9.910;2022-07-25T02:36:25;6.43;;;3.63;;
22628;SDS011;11481;53.694;9.910;2022-07-25T02:38:51;8.00;;;4.63;;
22628;SDS011;11481;53.694;9.910;2022-07-25T02:41:18;12.57;;;4.63;;
22628;SDS011;11481;53.694;9.910;2022-07-25T02:43:45;7.15;;;4.25;;
22628;SDS011;11481;53.694;9.910;2022-07-25T02:46:11;8.00;;;4.25;;
22628;SDS011;11481;53.694;9.910;2022-07-25T02:48:38;6.50;;;4.25;;
22628;SDS011;11481;53.694;9.910;2022-07-25T02:51:05;6.82;;;3.88;;
22628;SDS011;11481;53.694;9.910;2022-07-25T02:53:32;9.38;;;3.92;;
22628;SDS011;11481;53.694;9.910;2022-07-25T02:56:18;6.65;;;4.15;;
22628;SDS011;11481;53.694;9.910;2022-07-25T02:58:46;6.47;;;4.22;;
22628;SDS011;11481;53.694;9.910;2022-07-25T03:01:13;7.43;;;4.38;;
22628;SDS011;11481;53.694;9.910;2022-07-25T03:03:40;6.45;;;3.78;;
22628;SDS011;11481;53.694;9.910;2022-07-25T03:06:07;8.35;;;4.28;;
22628;SDS011;11481;53.694;9.910;2022-07-25T03:08:34;7.85;;;4.82;;
22628;SDS011;11481;53.694;9.910;2022-07-25T03:11:00;8.77;;;4.22;;
22628;SDS011;11481;53.694;9.910;2022-07-25T03:13:28;6.25;;;3.92;;
22628;SDS011;11481;53.694;9.910;2022-07-25T03:15:54;6.40;;;4.10;;
22628;SDS011;11481;53.694;9.910;2022-07-25T03:18:21;5.22;;;3.45;;
22628;SDS011;11481;53.694;9.910;2022-07-25T03:20:48;6.57;;;4.30;;
22628;SDS011;11481;53.694;9.910;2022-07-25T03:23:14;6.53;;;4.13;;
22628;SDS011;11481;53.694;9.910;2022-07-25T03:25:41;6.88;;;3.58;;
22628;SDS011;11481;53.694;9.910;2022-07-25T03:28:07;6.57;;;4.03;;
22628;SDS011;11481;53.694;9.910;2022-07-25T03:30:34;7.15;;;3.72;;
22628;SDS011;11481;53.694;9.910;2022-07-25T03:33:01;6.60;;;3.53;;
22628;SDS011;11481;53.694;9.910;2022-07-25T03:35:27;7.55;;;4.53;;
22628;SDS011;11481;53.694;9.910;2022-07-25T03:37:54;8.20;;;3.60;;
22628;SDS011;11481;53.694;9.910;2022-07-25T03:40:20;7.85;;;3.83;;
22628;SDS011;11481;53.694;9.910;2022-07-25T03:42:48;5.25;;;3.38;;
22628;SDS011;11481;53.694;9.910;2022-07-25T03:45:14;6.07;;;2.88;;
22628;SDS011;11481;53.694;9.910;2022-07-25T03:47:42;5.50;;;3.20;;
22628;SDS011;11481;53.694;9.910;2022-07-25T03:50:09;5.38;;;3.25;;
22628;SDS011;11481;53.694;9.910;2022-07-25T03:52:36;6.10;;;3.45;;
22628;SDS011;11481;53.694;9.910;2022-07-25T03:55:06;6.47;;;3.22;;
22628;SDS011;11481;53.694;9.910;2022-07-25T03:57:34;5.93;;;3.63;;
22628;SDS011;11481;53.694;9.910;2022-07-25T04:00:02;5.28;;;3.03;;
22628;SDS011;11481;53.694;9.910;2022-07-25T04:02:33;10.18;;;3.03;;
22628;SDS011;11481;53.694;9.910;2022-07-25T04:05:00;5.35;;;3.33;;
22628;SDS011;11481;53.694;9.910;2022-07-25T04:07:27;5.95;;;2.95;;
22628;SDS011;11481;53.694;9.910;2022-07-25T04:09:54;6.25;;;2.95;;
22628;SDS011;11481;53.694;9.910;2022-07-25T04:12:21;6.45;;;3.30;;
22628;SDS011;11481;53.694;9.910;2022-07-25T04:14:47;7.35;;;2.80;;
22628;SDS011;11481;53.694;9.910;2022-07-25T04:17:14;5.50;;;3.03;;
22628;SDS011;11481;53.694;9.910;2022-07-25T04:19:41;5.28;;;3.13;;
22628;SDS011;11481;53.694;9.910;2022-07-25T04:22:07;4.38;;;2.88;;
22628;SDS011;11481;53.694;9.910;2022-07-25T04:24:34;6.05;;;2.97;;
22628;SDS011;11481;53.694;9.910;2022-07-25T04:27:02;5.70;;;3.05;;
22628;SDS011;11481;53.694;9.910;2022-07-25T04:29:28;6.40;;;3.25;;
22628;SDS011;11481;53.694;9.910;2022-07-25T04:31:55;6.05;;;3.05;;
22628;SDS011;11481;53.694;9.910;2022-07-25T04:34:23;4.90;;;3.10;;
22628;SDS011;11481;53.694;9.910;2022-07-25T04:36:49;4.68;;;2.92;;
22628;SDS011;11481;53.694;9.910;2022-07-25T04:39:16;4.60;;;2.50;;
22628;SDS011;11481;53.694;9.910;2022-07-25T04:41:43;5.43;;;2.95;;
22628;SDS011;11481;53.694;9.910;2022-07-25T04:44:09;5.35;;;2.70;;
22628;SDS011;11481;53.694;9.910;2022-07-25T04:46:36;4.72;;;2.97;;
22628;SDS011;11481;53.694;9.910;2022-07-25T04:49:03;5.00;;;2.78;;
22628;SDS011;11481;53.694;9.910;2022-07-25T04:51:29;5.97;;;3.10;;
22628;SDS011;11481;53.694;9.910;2022-07-25T04:53:56;6.05;;;2.63;;
22628;SDS011;11481;53.694;9.910;2022-07-25T04:56:23;5.43;;;2.55;;
22628;SDS011;11481;53.694;9.910;2022-07-25T04:58:49;4.45;;;2.35;;
22628;SDS011;11481;53.694;9.910;2022-07-25T05:01:16;3.63;;;2.30;;
22628;SDS011;11481;53.694;9.910;2022-07-25T05:03:43;4.50;;;2.38;;
22628;SDS011;11481;53.694;9.910;2022-07-25T05:06:16;5.10;;;2.80;;
22628;SDS011;11481;53.694;9.910;2022-07-25T05:08:43;5.38;;;2.95;;
22628;SDS011;11481;53.694;9.910;2022-07-25T05:11:10;4.85;;;3.08;;
22628;SDS011;11481;53.694;9.910;2022-07-25T05:13:37;4.68;;;2.60;;
22628;SDS011;11481;53.694;9.910;2022-07-25T05:16:04;4.90;;;2.58;;
22628;SDS011;11481;53.694;9.910;2022-07-25T05:18:32;5.80;;;2.53;;
22628;SDS011;11481;53.694;9.910;2022-07-25T05:20:59;4.53;;;2.58;;
22628;SDS011;11481;53.694;9.910;2022-07-25T05:23:26;4.10;;;2.45;;
22628;SDS011;11481;53.694;9.910;2022-07-25T05:25:52;5.07;;;2.42;;
22628;SDS011;11481;53.694;9.910;2022-07-25T05:28:19;4.43;;;2.53;;
22628;SDS011;11481;53.694;9.910;2022-07-25T05:30:46;4.05;;;2.38;;
22628;SDS011;11481;53.694;9.910;2022-07-25T05:33:13;4.95;;;2.35;;
22628;SDS011;11481;53.694;9.910;2022-07-25T05:35:40;3.70;;;2.00;;
22628;SDS011;11481;53.694;9.910;2022-07-25T05:38:07;6.75;;;2.80;;
22628;SDS011;11481;53.694;9.910;2022-07-25T05:40:33;3.67;;;2.40;;
22628;SDS011;11481;53.694;9.910;2022-07-25T05:43:00;4.35;;;2.50;;
22628;SDS011;11481;53.694;9.910;2022-07-25T05:45:29;4.30;;;2.38;;
22628;SDS011;11481;53.694;9.910;2022-07-25T05:47:56;4.75;;;2.65;;
22628;SDS011;11481;53.694;9.910;2022-07-25T05:50:22;5.00;;;2.63;;
22628;SDS011;11481;53.694;9.910;2022-07-25T05:52:51;5.50;;;2.60;;
22628;SDS011;11481;53.694;9.910;2022-07-25T05:55:18;5.43;;;2.15;;
22628;SDS011;11481;53.694;9.910;2022-07-25T05:57:45;5.68;;;2.50;;
22628;SDS011;11481;53.694;9.910;2022-07-25T06:00:12;6.28;;;2.55;;
22628;SDS011;11481;53.694;9.910;2022-07-25T06:02:38;5.47;;;2.58;;
22628;SDS011;11481;53.694;9.910;2022-07-25T06:05:05;3.88;;;2.13;;
22628;SDS011;11481;53.694;9.910;2022-07-25T06:07:32;3.97;;;2.45;;
22628;SDS011;11481;53.694;9.910;2022-07-25T06:09:59;5.82;;;2.75;;
22628;SDS011;11481;53.694;9.910;2022-07-25T06:12:25;5.13;;;2.70;;
22628;SDS011;11481;53.694;9.910;2022-07-25T06:14:52;9.05;;;2.55;;
22628;SDS011;11481;53.694;9.910;2022-07-25T06:17:19;5.85;;;2.30;;
22628;SDS011;11481;53.694;9.910;2022-07-25T06:19:45;4.40;;;2.75;;
22628;SDS011;11481;53.694;9.910;2022-07-25T06:22:12;7.75;;;2.65;;
22628;SDS011;11481;53.694;9.910;2022-07-25T06:24:39;3.85;;;2.40;;
22628;SDS011;11481;53.694;9.910;2022-07-25T06:27:06;4.50;;;2.42;;
22628;SDS011;11481;53.694;9.910;2022-07-25T06:29:33;5.47;;;2.63;;
22628;SDS011;11481;53.694;9.910;2022-07-25T06:32:00;5.43;;;2.53;;
22628;SDS011;11481;53.694;9.910;2022-07-25T06:34:27;4.43;;;2.58;;
22628;SDS011;11481;53.694;9.910;2022-07-25T06:36:56;4.25;;;2.40;;
22628;SDS011;11481;53.694;9.910;2022-07-25T06:39:23;6.22;;;2.70;;
22628;SDS011;11481;53.694;9.910;2022-07-25T06:41:50;4.85;;;2.88;;
22628;SDS011;11481;53.694;9.910;2022-07-25T06:44:17;5.63;;;3.05;;
22628;SDS011;11481;53.694;9.910;2022-07-25T06:46:50;4.35;;;2.58;;
22628;SDS011;11481;53.694;9.910;2022-07-25T06:49:16;4.82;;;2.95;;
22628;SDS011;11481;53.694;9.910;2022-07-25T06:51:43;4.03;;;2.65;;
22628;SDS011;11481;53.694;9.910;2022-07-25T06:54:10;7.57;;;2.60;;
22628;SDS011;11481;53.694;9.910;2022-07-25T06:56:38;6.50;;;2.75;;
22628;SDS011;11481;53.694;9.910;2022-07-25T06:59:05;5.53;;;2.88;;
22628;SDS011;11481;53.694;9.910;2022-07-25T07:01:31;5.65;;;2.90;;
22628;SDS011;11481;53.694;9.910;2022-07-25T07:03:58;7.65;;;2.95;;
22628;SDS011;11481;53.694;9.910;2022-07-25T07:06:25;5.70;;;3.35;;
22628;SDS011;11481;53.694;9.910;2022-07-25T07:08:55;4.50;;;2.90;;
22628;SDS011;11481;53.694;9.910;2022-07-25T07:11:21;5.40;;;3.10;;
22628;SDS011;11481;53.694;9.910;2022-07-25T07:13:48;6.18;;;3.35;;
22628;SDS011;11481;53.694;9.910;2022-07-25T07:16:15;4.97;;;2.80;;
22628;SDS011;11481;53.694;9.910;2022-07-25T07:18:41;4.60;;;2.88;;
22628;SDS011;11481;53.694;9.910;2022-07-25T07:21:14;6.28;;;2.78;;
22628;SDS011;11481;53.694;9.910;2022-07-25T07:23:46;6.22;;;2.80;;
22628;SDS011;11481;53.694;9.910;2022-07-25T07:26:13;4.32;;;2.40;;
22628;SDS011;11481;53.694;9.910;2022-07-25T07:28:40;5.32;;;3.05;;
22628;SDS011;11481;53.694;9.910;2022-07-25T07:31:07;5.97;;;2.92;;
22628;SDS011;11481;53.694;9.910;2022-07-25T07:33:42;4.88;;;3.13;;
22628;SDS011;11481;53.694;9.910;2022-07-25T07:36:09;6.03;;;3.47;;
22628;SDS011;11481;53.694;9.910;2022-07-25T07:38:36;5.60;;;2.80;;
22628;SDS011;11481;53.694;9.910;2022-07-25T07:41:03;5.25;;;3.00;;
22628;SDS011;11481;53.694;9.910;2022-07-25T07:43:29;7.22;;;3.47;;
22628;SDS011;11481;53.694;9.910;2022-07-25T07:45:57;3.60;;;2.55;;
22628;SDS011;11481;53.694;9.910;2022-07-25T07:48:26;5.30;;;3.05;;
22628;SDS011;11481;53.694;9.910;2022-07-25T07:50:57;9.20;;;3.17;;
22628;SDS011;11481;53.694;9.910;2022-07-25T07:53:24;9.40;;;3.03;;
22628;SDS011;11481;53.694;9.910;2022-07-25T07:56:11;5.18;;;3.45;;
22628;SDS011;11481;53.694;9.910;2022-07-25T07:58:39;6.35;;;3.35;;
22628;SDS011;11481;53.694;9.910;2022-07-25T08:01:05;6.05;;;3.35;;
22628;SDS011;11481;53.694;9.910;2022-07-25T08:03:32;6.70;;;3.63;;
22628;SDS011;11481;53.694;9.910;2022-07-25T08:05:59;6.38;;;3.20;;
22628;SDS011;11481;53.694;9.910;2022-07-25T08:08:26;6.18;;;3.60;;
22628;SDS011;11481;53.694;9.910;2022-07-25T08:10:56;7.00;;;3.78;;
22628;SDS011;11481;53.694;9.910;2022-07-25T08:13:25;6.53;;;3.75;;
22628;SDS011;11481;53.694;9.910;2022-07-25T08:15:58;5.88;;;3.60;;
22628;SDS011;11481;53.694;9.910;2022-07-25T08:18:26;7.57;;;3.80;;
22628;SDS011;11481;53.694;9.910;2022-07-25T08:20:55;6.65;;;3.65;;
22628;SDS011;11481;53.694;9.910;2022-07-25T08:23:22;9.57;;;3.88;;
22628;SDS011;11481;53.694;9.910;2022-07-25T08:25:50;6.70;;;3.58;;
22628;SDS011;11481;53.694;9.910;2022-07-25T08:28:17;5.63;;;3.60;;
22628;SDS011;11481;53.694;9.910;2022-07-25T08:30:44;5.93;;;3.72;;
22628;SDS011;11481;53.694;9.910;2022-07-25T08:33:11;6.85;;;4.07;;
22628;SDS011;11481;53.694;9.910;2022-07-25T08:35:44;5.30;;;3.60;;
22628;SDS011;11481;53.694;9.910;2022-07-25T08:38:17;8.15;;;3.83;;
22628;SDS011;11481;53.694;9.910;2022-07-25T08:40:44;6.80;;;4.03;;
22628;SDS011;11481;53.694;9.910;2022-07-25T08:43:12;7.57;;;4.10;;
22628;SDS011;11481;53.694;9.910;2022-07-25T08:45:47;6.72;;;3.58;;
22628;SDS011;11481;53.694;9.910;2022-07-25T08:48:16;5.88;;;3.58;;
22628;SDS011;11481;53.694;9.910;2022-07-25T08:50:44;6.13;;;3.70;;
22628;SDS011;11481;53.694;9.910;2022-07-25T08:53:13;6.47;;;3.97;;
22628;SDS011;11481;53.694;9.910;2022-07-25T08:55:58;6.72;;;4.30;;
22628;SDS011;11481;53.694;9.910;2022-07-25T08:58:25;9.45;;;3.70;;
22628;SDS011;11481;53.694;9.910;2022-07-25T09:00:56;7.25;;;3.97;;
22628;SDS011;11481;53.694;9.910;2022-07-25T09:03:23;6.40;;;4.15;;
22628;SDS011;11481;53.694;9.910;2022-07-25T09:05:51;6.40;;;4.18;;
22628;SDS011;11481;53.694;9.910;2022-07-25T09:08:18;5.63;;;3.88;;
22628;SDS011;11481;53.694;9.910;2022-07-25T09:10:46;6.45;;;4.10;;
22628;SDS011;11481;53.694;9.910;2022-07-25T09:13:14;6.78;;;3.72;;
22628;SDS011;11481;53.694;9.910;2022-07-25T09:15:44;6.43;;;3.70;;
22628;SDS011;11481;53.694;9.910;2022-07-25T09:18:15;5.15;;;3.58;;
22628;SDS011;11481;53.694;9.910;2022-07-25T09:23:25;7.05;;;3.97;;
22628;SDS011;11481;53.694;9.910;2022-07-25T09:28:53;5.78;;;3.58;;
22628;SDS011;11481;53.694;9.910;2022-07-25T09:31:30;8.48;;;4.47;;
22628;SDS011;11481;53.694;9.910;2022-07-25T09:34:00;8.63;;;3.85;;
22628;SDS011;11481;53.694;9.910;2022-07-25T09:36:28;4.95;;;3.30;;
22628;SDS011;11481;53.694;9.910;2022-07-25T09:38:57;4.85;;;3.55;;
22628;SDS011;11481;53.694;9.910;2022-07-25T09:41:35;5.97;;;4.20;;
22628;SDS011;11481;53.694;9.910;2022-07-25T09:46:44;6.70;;;4.28;;
22628;SDS011;11481;53.694;9.910;2022-07-25T09:49:11;6.47;;;3.78;;
22628;SDS011;11481;53.694;9.910;2022-07-25T09:51:41;6.25;;;4.22;;
22628;SDS011;11481;53.694;9.910;2022-07-25T09:54:08;5.75;;;3.88;;
22628;SDS011;11481;53.694;9.910;2022-07-25T09:56:35;6.38;;;4.07;;
22628;SDS011;11481;53.694;9.910;2022-07-25T09:59:03;7.78;;;4.18;;
22628;SDS011;11481;53.694;9.910;2022-07-25T10:01:34;7.07;;;3.90;;
22628;SDS011;11481;53.694;9.910;2022-07-25T10:04:08;6.47;;;3.80;;
22628;SDS011;11481;53.694;9.910;2022-07-25T10:06:53;7.70;;;3.80;;
22628;SDS011;11481;53.694;9.910;2022-07-25T10:09:29;7.47;;;4.30;;
22628;SDS011;11481;53.694;9.910;2022-07-25T10:12:09;6.50;;;4.00;;
22628;SDS011;11481;53.694;9.910;2022-07-25T10:14:37;7.15;;;4.35;;
22628;SDS011;11481;53.694;9.910;2022-07-25T10:17:04;7.63;;;3.85;;
22628;SDS011;11481;53.694;9.910;2022-07-25T10:19:35;6.38;;;4.13;;
22628;SDS011;11481;53.694;9.910;2022-07-25T10:22:01;9.70;;;4.35;;
22628;SDS011;11481;53.694;9.910;2022-07-25T10:24:34;6.88;;;3.55;;
22628;SDS011;11481;53.694;9.910;2022-07-25T10:27:07;6.35;;;3.75;;
22628;SDS011;11481;53.694;9.910;2022-07-25T10:29:36;5.78;;;3.72;;
22628;SDS011;11481;53.694;9.910;2022-07-25T10:32:09;6.45;;;3.70;;
22628;SDS011;11481;53.694;9.910;2022-07-25T10:34:37;8.10;;;4.25;;
22628;SDS011;11481;53.694;9.910;2022-07-25T10:37:25;7.35;;;3.63;;
22628;SDS011;11481;53.694;9.910;2022-07-25T10:39:53;5.32;;;3.78;;
22628;SDS011;11481;53.694;9.910;2022-07-25T10:42:21;6.88;;;4.03;;
22628;SDS011;11481;53.694;9.910;2022-07-25T10:44:52;8.13;;;4.10;;
22628;SDS011;11481;53.694;9.910;2022-07-25T10:47:23;5.82;;;3.63;;
22628;SDS011;11481;53.694;9.910;2022-07-25T10:49:56;6.32;;;4.03;;
22628;SDS011;11481;53.694;9.910;2022-07-25T10:52:43;7.03;;;4.55;;
22628;SDS011;11481;53.694;9.910;2022-07-25T10:55:20;6.45;;;4.00;;
22628;SDS011;11481;53.694;9.910;2022-07-25T10:57:58;8.52;;;3.90;;
22628;SDS011;11481;53.694;9.910;2022-07-25T11:00:45;6.20;;;4.03;;
22628;SDS011;11481;53.694;9.910;2022-07-25T11:03:12;8.00;;;4.38;;
22628;SDS011;11481;53.694;9.910;2022-07-25T11:05:44;6.32;;;3.92;;
22628;SDS011;11481;53.694;9.910;2022-07-25T11:08:12;7.70;;;4.30;;
22628;SDS011;11481;53.694;9.910;2022-07-25T11:10:50;6.38;;;3.83;;
22628;SDS011;11481;53.694;9.910;2022-07-25T11:13:17;7.63;;;4.03;;
22628;SDS011;11481;53.694;9.910;2022-07-25T11:15:44;7.07;;;3.97;;
22628;SDS011;11481;53.694;9.910;2022-07-25T11:18:12;5.97;;;3.83;;
22628;SDS011;11481;53.694;9.910;2022-07-25T11:20:38;6.07;;;3.55;;
22628;SDS011;11481;53.694;9.910;2022-07-25T11:23:05;8.27;;;4.22;;
22628;SDS011;11481;53.694;9.910;2022-07-25T11:25:32;6.95;;;4.40;;
22628;SDS011;11481;53.694;9.910;2022-07-25T11:27:59;6.50;;;3.58;;
22628;SDS011;11481;53.694;9.910;2022-07-25T11:30:26;7.32;;;3.88;;
22628;SDS011;11481;53.694;9.910;2022-07-25T11:32:55;6.60;;;4.32;;
22628;SDS011;11481;53.694;9.910;2022-07-25T11:35:27;5.72;;;3.63;;
22628;SDS011;11481;53.694;9.910;2022-07-25T11:37:56;7.18;;;3.78;;
22628;SDS011;11481;53.694;9.910;2022-07-25T11:40:27;6.53;;;4.13;;
22628;SDS011;11481;53.694;9.910;2022-07-25T11:42:55;7.40;;;4.07;;
22628;SDS011;11481;53.694;9.910;2022-07-25T11:45:28;6.65;;;3.60;;
22628;SDS011;11481;53.694;9.910;2022-07-25T11:48:03;6.60;;;4.15;;
22628;SDS011;11481;53.694;9.910;2022-07-25T11:50:35;5.90;;;3.80;;
22628;SDS011;11481;53.694;9.910;2022-07-25T11:53:06;6.15;;;4.00;;
22628;SDS011;11481;53.694;9.910;2022-07-25T11:55:35;7.00;;;3.92;;
22628;SDS011;11481;53.694;9.910;2022-07-25T11:58:05;7.28;;;4.13;;
22628;SDS011;11481;53.694;9.910;2022-07-25T12:00:33;9.50;;;5.03;;
22628;SDS011;11481;53.694;9.910;2022-07-25T12:03:08;5.95;;;3.72;;
22628;SDS011;11481;53.694;9.910;2022-07-25T12:05:44;9.07;;;4.25;;
22628;SDS011;11481;53.694;9.910;2022-07-25T12:08:15;6.63;;;4.15;;
22628;SDS011;11481;53.694;9.910;2022-07-25T12:10:43;6.53;;;4.18;;
22628;SDS011;11481;53.694;9.910;2022-07-25T12:13:22;6.72;;;3.90;;
22628;SDS011;11481;53.694;9.910;2022-07-25T12:15:50;7.15;;;4.13;;
22628;SDS011;11481;53.694;9.910;2022-07-25T12:18:17;6.30;;;3.70;;
22628;SDS011;11481;53.694;9.910;2022-07-25T12:20:44;7.30;;;4.38;;
22628;SDS011;11481;53.694;9.910;2022-07-25T12:23:11;6.32;;;4.13;;
22628;SDS011;11481;53.694;9.910;2022-07-25T12:25:39;5.75;;;3.90;;
22628;SDS011;11481;53.694;9.910;2022-07-25T12:28:07;7.05;;;4.35;;
22628;SDS011;11481;53.694;9.910;2022-07-25T12:30:36;5.55;;;3.67;;
22628;SDS011;11481;53.694;9.910;2022-07-25T12:33:04;6.43;;;4.05;;
22628;SDS011;11481;53.694;9.910;2022-07-25T12:35:32;6.15;;;3.70;;
22628;SDS011;11481;53.694;9.910;2022-07-25T12:38:02;7.20;;;3.80;;
22628;SDS011;11481;53.694;9.910;2022-07-25T12:40:29;5.20;;;3.40;;
22628;SDS011;11481;53.694;9.910;2022-07-25T12:42:56;5.30;;;3.72;;
22628;SDS011;11481;53.694;9.910;2022-07-25T12:45:24;7.07;;;4.22;;
22628;SDS011;11481;53.694;9.910;2022-07-25T12:47:51;5.30;;;3.65;;
22628;SDS011;11481;53.694;9.910;2022-07-25T12:50:17;6.07;;;3.53;;
22628;SDS011;11481;53.694;9.910;2022-07-25T12:52:45;6.18;;;4.07;;
22628;SDS011;11481;53.694;9.910;2022-07-25T12:55:13;6.93;;;3.85;;
22628;SDS011;11481;53.694;9.910;2022-07-25T12:57:41;5.07;;;3.53;;
22628;SDS011;11481;53.694;9.910;2022-07-25T13:00:09;5.68;;;3.55;;
22628;SDS011;11481;53.694;9.910;2022-07-25T13:02:38;6.70;;;3.80;;
22628;SDS011;11481;53.694;9.910;2022-07-25T13:05:06;5.70;;;3.63;;
22628;SDS011;11481;53.694;9.910;2022-07-25T13:07:33;6.40;;;3.97;;
22628;SDS011;11481;53.694;9.910;2022-07-25T13:10:00;7.75;;;4.40;;
22628;SDS011;11481;53.694;9.910;2022-07-25T13:12:28;7.47;;;3.97;;
22628;SDS011;11481;53.694;9.910;2022-07-25T13:14:56;5.07;;;3.30;;
22628;SDS011;11481;53.694;9.910;2022-07-25T13:17:23;4.65;;;3.33;;
22628;SDS011;11481;53.694;9.910;2022-07-25T13:19:53;7.15;;;3.92;;
22628;SDS011;11481;53.694;9.910;2022-07-25T13:22:21;5.82;;;3.72;;
22628;SDS011;11481;53.694;9.910;2022-07-25T13:24:48;6.50;;;3.95;;
22628;SDS011;11481;53.694;9.910;2022-07-25T13:27:16;6.00;;;3.80;;
22628;SDS011;11481;53.694;9.910;2022-07-25T13:29:44;7.15;;;3.75;;
22628;SDS011;11481;53.694;9.910;2022-07-25T13:32:12;7.45;;;3.95;;
22628;SDS011;11481;53.694;9.910;2022-07-25T13:34:38;6.32;;;3.45;;
22628;SDS011;11481;53.694;9.910;2022-07-25T13:37:05;5.75;;;3.55;;
22628;SDS011;11481;53.694;9.910;2022-07-25T13:39:32;5.25;;;3.45;;
22628;SDS011;11481;53.694;9.910;2022-07-25T13:42:00;6.78;;;4.00;;
22628;SDS011;11481;53.694;9.910;2022-07-25T13:44:27;5.63;;;3.65;;
22628;SDS011;11481;53.694;9.910;2022-07-25T13:46:54;7.22;;;4.00;;
22628;SDS011;11481;53.694;9.910;2022-07-25T13:49:22;6.35;;;3.85;;
22628;SDS011;11481;53.694;9.910;2022-07-25T13:51:51;6.88;;;4.43;;
22628;SDS011;11481;53.694;9.910;2022-07-25T13:54:17;13.60;;;5.32;;
22628;SDS011;11481;53.694;9.910;2022-07-25T13:56:44;8.60;;;5.78;;
22628;SDS011;11481;53.694;9.910;2022-07-25T13:59:11;12.65;;;5.88;;
22628;SDS011;11481;53.694;9.910;2022-07-25T14:01:46;11.95;;;6.50;;
22628;SDS011;11481;53.694;9.910;2022-07-25T14:04:13;10.48;;;6.78;;
22628;SDS011;11481;53.694;9.910;2022-07-25T14:06:40;14.13;;;7.13;;
22628;SDS011;11481;53.694;9.910;2022-07-25T14:09:06;13.85;;;7.35;;
22628;SDS011;11481;53.694;9.910;2022-07-25T14:11:34;14.02;;;6.80;;
22628;SDS011;11481;53.694;9.910;2022-07-25T14:14:01;10.75;;;6.40;;
22628;SDS011;11481;53.694;9.910;2022-07-25T14:16:27;10.93;;;5.90;;
22628;SDS011;11481;53.694;9.910;2022-07-25T14:18:54;13.25;;;5.90;;
22628;SDS011;11481;53.694;9.910;2022-07-25T14:21:21;11.75;;;5.53;;
22628;SDS011;11481;53.694;9.910;2022-07-25T14:23:47;10.45;;;6.15;;
22628;SDS011;11481;53.694;9.910;2022-07-25T14:26:14;8.75;;;5.60;;
22628;SDS011;11481;53.694;9.910;2022-07-25T14:28:41;10.57;;;5.28;;
22628;SDS011;11481;53.694;9.910;2022-07-25T14:31:08;9.55;;;5.03;;
22628;SDS011;11481;53.694;9.910;2022-07-25T14:33:36;9.23;;;4.82;;
22628;SDS011;11481;53.694;9.910;2022-07-25T14:36:08;10.25;;;4.20;;
22628;SDS011;11481;53.694;9.910;2022-07-25T14:38:35;7.18;;;3.17;;
22628;SDS011;11481;53.694;9.910;2022-07-25T14:41:02;8.85;;;4.20;;
22628;SDS011;11481;53.694;9.910;2022-07-25T14:43:37;7.75;;;3.22;;
22628;SDS011;11481;53.694;9.910;2022-07-25T14:46:04;5.10;;;3.33;;
22628;SDS011;11481;53.694;9.910;2022-07-25T14:48:30;6.88;;;3.20;;
22628;SDS011;11481;53.694;9.910;2022-07-25T14:50:57;7.03;;;2.72;;
22628;SDS011;11481;53.694;9.910;2022-07-25T14:53:24;6.72;;;3.40;;
22628;SDS011;11481;53.694;9.910;2022-07-25T14:55:50;8.95;;;3.00;;
22628;SDS011;11481;53.694;9.910;2022-07-25T14:58:17;5.10;;;2.30;;
22628;SDS011;11481;53.694;9.910;2022-07-25T15:00:45;5.13;;;2.40;;
22628;SDS011;11481;53.694;9.910;2022-07-25T15:03:12;7.47;;;2.58;;